sensor_id;sensor_type;location;lat;lon;timestamp;temperature;humidity
23335;DHT22;11839;48.598;8.870;2023-09-30T00:01:56;17.90;99.90
23335;DHT22;11839;48.598;8.870;2023-09-30T00:04:24;17.60;99.90
23335;DHT22;11839;48.598;8.870;2023-09-30T00:06:50;17.40;99.90
23335;DHT22;11839;48.598;8.870;2023-09-30T00:09:17;17.70;99.90
23335;DHT22;11839;48.598;8.870;2023-09-30T00:11:45;17.60;99.90
23335;DHT22;11839;48.598;8.870;2023-09-30T00:14:12;17.50;99.90
23335;DHT22;11839;48.598;8.870;2023-09-30T00:16:39;17.30;99.90
23335;DHT22;11839;48.598;8.870;2023-09-30T00:19:05;17.10;99.90
23335;DHT22;11839;48.598;8.870;2023-09-30T00:21:32;17.30;99.90
23335;DHT22;11839;48.598;8.870;2023-09-30T00:23:59;17.10;99.90
23335;DHT22;11839;48.598;8.870;2023-09-30T00:26:26;17.40;99.90
23335;DHT22;11839;48.598;8.870;2023-09-30T00:28:54;17.60;99.90
23335;DHT22;11839;48.598;8.870;2023-09-30T00:31:21;17.70;99.90
23335;DHT22;11839;48.598;8.870;2023-09-30T00:33:47;17.80;99.90
23335;DHT22;11839;48.598;8.870;2023-09-30T00:36:14;17.70;99.90
23335;DHT22;11839;48.598;8.870;2023-09-30T00:38:42;17.80;99.90
23335;DHT22;11839;48.598;8.870;2023-09-30T00:41:08;18.00;99.90
23335;DHT22;11839;48.598;8.870;2023-09-30T00:43:35;18.10;99.90
23335;DHT22;11839;48.598;8.870;2023-09-30T00:46:06;17.90;99.90
23335;DHT22;11839;48.598;8.870;2023-09-30T00:48:37;18.10;99.90
23335;DHT22;11839;48.598;8.870;2023-09-30T00:51:04;18.20;99.90
23335;DHT22;11839;48.598;8.870;2023-09-30T00:53:32;18.30;99.90
23335;DHT22;11839;48.598;8.870;2023-09-30T00:55:59;18.10;99.90
23335;DHT22;11839;48.598;8.870;2023-09-30T00:58:27;18.10;99.90
23335;DHT22;11839;48.598;8.870;2023-09-30T01:00:56;18.30;99.90
23335;DHT22;11839;48.598;8.870;2023-09-30T01:03:25;17.90;99.90
23335;DHT22;11839;48.598;8.870;2023-09-30T01:05:53;18.00;99.90
23335;DHT22;11839;48.598;8.870;2023-09-30T01:08:20;17.70;99.90
23335;DHT22;11839;48.598;8.870;2023-09-30T01:10:47;17.40;99.90
23335;DHT22;11839;48.598;8.870;2023-09-30T01:13:14;17.30;99.90
23335;DHT22;11839;48.598;8.870;2023-09-30T01:15:41;17.20;99.90
23335;DHT22;11839;48.598;8.870;2023-09-30T01:18:08;17.00;99.90
23335;DHT22;11839;48.598;8.870;2023-09-30T01:20:36;16.90;99.90
23335;DHT22;11839;48.598;8.870;2023-09-30T01:23:04;17.30;99.90
23335;DHT22;11839;48.598;8.870;2023-09-30T01:25:31;17.70;99.90
23335;DHT22;11839;48.598;8.870;2023-09-30T01:27:58;17.60;99.90
23335;DHT22;11839;48.598;8.870;2023-09-30T01:30:31;17.60;99.90
23335;DHT22;11839;48.598;8.870;2023-09-30T01:32:58;17.60;99.90
23335;DHT22;11839;48.598;8.870;2023-09-30T01:35:25;17.20;99.90
23335;DHT22;11839;48.598;8.870;2023-09-30T01:37:52;16.90;99.90
23335;DHT22;11839;48.598;8.870;2023-09-30T01:40:21;16.90;99.90
23335;DHT22;11839;48.598;8.870;2023-09-30T01:42:47;16.40;99.90
23335;DHT22;11839;48.598;8.870;2023-09-30T01:45:15;16.10;99.90
23335;DHT22;11839;48.598;8.870;2023-09-30T01:47:41;16.30;99.90
23335;DHT22;11839;48.598;8.870;2023-09-30T01:50:09;16.40;99.90
23335;DHT22;11839;48.598;8.870;2023-09-30T01:52:36;16.80;99.90
23335;DHT22;11839;48.598;8.870;2023-09-30T01:55:03;16.90;99.90
23335;DHT22;11839;48.598;8.870;2023-09-30T01:57:31;17.20;99.90
23335;DHT22;11839;48.598;8.870;2023-09-30T01:59:58;17.50;99.90
23335;DHT22;11839;48.598;8.870;2023-09-30T02:02:24;17.20;99.90
23335;DHT22;11839;48.598;8.870;2023-09-30T02:04:52;16.80;99.90
23335;DHT22;11839;48.598;8.870;2023-09-30T02:07:19;16.80;99.90
23335;DHT22;11839;48.598;8.870;2023-09-30T02:09:46;17.10;99.90
23335;DHT22;11839;48.598;8.870;2023-09-30T02:12:14;17.10;99.90
23335;DHT22;11839;48.598;8.870;2023-09-30T02:14:42;17.20;99.90
23335;DHT22;11839;48.598;8.870;2023-09-30T02:17:09;17.10;99.90
23335;DHT22;11839;48.598;8.870;2023-09-30T02:19:36;17.10;99.90
23335;DHT22;11839;48.598;8.870;2023-09-30T02:22:03;17.30;99.90
23335;DHT22;11839;48.598;8.870;2023-09-30T02:24:30;16.80;99.90
23335;DHT22;11839;48.598;8.870;2023-09-30T02:26:57;16.50;99.90
23335;DHT22;11839;48.598;8.870;2023-09-30T02:29:24;16.40;99.90
23335;DHT22;11839;48.598;8.870;2023-09-30T02:31:53;16.30;99.90
23335;DHT22;11839;48.598;8.870;2023-09-30T02:34:20;16.50;99.90
23335;DHT22;11839;48.598;8.870;2023-09-30T02:36:47;17.30;99.90
23335;DHT22;11839;48.598;8.870;2023-09-30T02:39:14;17.60;99.90
23335;DHT22;11839;48.598;8.870;2023-09-30T02:41:43;17.30;99.90
23335;DHT22;11839;48.598;8.870;2023-09-30T02:44:10;17.20;99.90
23335;DHT22;11839;48.598;8.870;2023-09-30T02:46:37;16.70;99.90
23335;DHT22;11839;48.598;8.870;2023-09-30T02:49:05;16.40;99.90
23335;DHT22;11839;48.598;8.870;2023-09-30T02:51:32;16.20;99.90
23335;DHT22;11839;48.598;8.870;2023-09-30T02:53:59;16.60;99.90
23335;DHT22;11839;48.598;8.870;2023-09-30T02:56:26;16.90;99.90
23335;DHT22;11839;48.598;8.870;2023-09-30T02:58:55;16.70;99.90
23335;DHT22;11839;48.598;8.870;2023-09-30T03:01:23;16.60;99.90
23335;DHT22;11839;48.598;8.870;2023-09-30T03:03:50;16.40;99.90
23335;DHT22;11839;48.598;8.870;2023-09-30T03:06:18;16.30;99.90
23335;DHT22;11839;48.598;8.870;2023-09-30T03:08:45;16.00;99.90
23335;DHT22;11839;48.598;8.870;2023-09-30T03:11:12;15.90;99.90
23335;DHT22;11839;48.598;8.870;2023-09-30T03:13:39;15.80;99.90
23335;DHT22;11839;48.598;8.870;2023-09-30T03:16:07;15.60;99.90
23335;DHT22;11839;48.598;8.870;2023-09-30T03:18:34;15.70;99.90
23335;DHT22;11839;48.598;8.870;2023-09-30T03:21:02;15.80;99.90
23335;DHT22;11839;48.598;8.870;2023-09-30T03:23:35;16.50;99.90
23335;DHT22;11839;48.598;8.870;2023-09-30T03:26:04;16.90;99.90
23335;DHT22;11839;48.598;8.870;2023-09-30T03:28:35;16.70;99.90
23335;DHT22;11839;48.598;8.870;2023-09-30T03:31:03;16.80;99.90
23335;DHT22;11839;48.598;8.870;2023-09-30T03:33:31;17.00;99.90
23335;DHT22;11839;48.598;8.870;2023-09-30T03:35:58;16.70;99.90
23335;DHT22;11839;48.598;8.870;2023-09-30T03:38:25;16.80;99.90
23335;DHT22;11839;48.598;8.870;2023-09-30T03:40:53;16.80;99.90
23335;DHT22;11839;48.598;8.870;2023-09-30T03:43:20;16.40;99.90
23335;DHT22;11839;48.598;8.870;2023-09-30T03:45:48;16.80;99.90
23335;DHT22;11839;48.598;8.870;2023-09-30T03:48:15;16.90;99.90
23335;DHT22;11839;48.598;8.870;2023-09-30T03:50:44;16.70;99.90
23335;DHT22;11839;48.598;8.870;2023-09-30T03:53:11;16.50;99.90
23335;DHT22;11839;48.598;8.870;2023-09-30T03:55:38;16.60;99.90
23335;DHT22;11839;48.598;8.870;2023-09-30T03:58:06;16.30;99.90
23335;DHT22;11839;48.598;8.870;2023-09-30T04:00:32;16.60;99.90
23335;DHT22;11839;48.598;8.870;2023-09-30T04:03:01;16.50;99.90
23335;DHT22;11839;48.598;8.870;2023-09-30T04:05:28;16.60;99.90
23335;DHT22;11839;48.598;8.870;2023-09-30T04:07:57;16.40;99.90
23335;DHT22;11839;48.598;8.870;2023-09-30T04:10:24;16.60;99.90
23335;DHT22;11839;48.598;8.870;2023-09-30T04:12:51;16.60;99.90
23335;DHT22;11839;48.598;8.870;2023-09-30T04:15:19;16.40;99.90
23335;DHT22;11839;48.598;8.870;2023-09-30T04:17:48;16.30;99.90
23335;DHT22;11839;48.598;8.870;2023-09-30T04:20:15;16.60;99.90
23335;DHT22;11839;48.598;8.870;2023-09-30T04:22:49;16.40;99.90
23335;DHT22;11839;48.598;8.870;2023-09-30T04:25:16;16.00;99.90
23335;DHT22;11839;48.598;8.870;2023-09-30T04:27:44;15.90;99.90
23335;DHT22;11839;48.598;8.870;2023-09-30T04:30:13;16.00;99.90
23335;DHT22;11839;48.598;8.870;2023-09-30T04:32:42;16.10;99.90
23335;DHT22;11839;48.598;8.870;2023-09-30T04:35:09;16.10;99.90
23335;DHT22;11839;48.598;8.870;2023-09-30T04:37:36;16.10;99.90
23335;DHT22;11839;48.598;8.870;2023-09-30T04:40:04;15.90;99.90
23335;DHT22;11839;48.598;8.870;2023-09-30T04:42:34;15.90;99.90
23335;DHT22;11839;48.598;8.870;2023-09-30T04:45:02;15.90;99.90
23335;DHT22;11839;48.598;8.870;2023-09-30T04:47:32;16.10;99.90
23335;DHT22;11839;48.598;8.870;2023-09-30T04:50:00;15.80;99.90
23335;DHT22;11839;48.598;8.870;2023-09-30T04:52:30;16.00;99.90
23335;DHT22;11839;48.598;8.870;2023-09-30T04:54:57;16.00;99.90
23335;DHT22;11839;48.598;8.870;2023-09-30T04:57:25;16.10;99.90
23335;DHT22;11839;48.598;8.870;2023-09-30T04:59:52;16.10;99.90
23335;DHT22;11839;48.598;8.870;2023-09-30T05:02:19;16.30;99.90
23335;DHT22;11839;48.598;8.870;2023-09-30T05:04:46;16.20;99.90
23335;DHT22;11839;48.598;8.870;2023-09-30T05:07:14;16.40;99.90
23335;DHT22;11839;48.598;8.870;2023-09-30T05:09:41;16.90;99.90
23335;DHT22;11839;48.598;8.870;2023-09-30T05:12:08;17.30;99.90
23335;DHT22;11839;48.598;8.870;2023-09-30T05:14:35;17.20;99.90
23335;DHT22;11839;48.598;8.870;2023-09-30T05:17:04;17.40;99.90
23335;DHT22;11839;48.598;8.870;2023-09-30T05:19:31;17.60;99.90
23335;DHT22;11839;48.598;8.870;2023-09-30T05:21:58;17.70;99.90
23335;DHT22;11839;48.598;8.870;2023-09-30T05:24:27;17.60;99.90
23335;DHT22;11839;48.598;8.870;2023-09-30T05:26:54;17.70;99.90
23335;DHT22;11839;48.598;8.870;2023-09-30T05:29:21;17.70;99.90
23335;DHT22;11839;48.598;8.870;2023-09-30T05:31:48;17.70;99.90
23335;DHT22;11839;48.598;8.870;2023-09-30T05:34:15;17.30;99.90
23335;DHT22;11839;48.598;8.870;2023-09-30T05:36:42;17.50;99.90
23335;DHT22;11839;48.598;8.870;2023-09-30T05:39:09;17.50;99.90
23335;DHT22;11839;48.598;8.870;2023-09-30T05:41:38;17.10;99.90
23335;DHT22;11839;48.598;8.870;2023-09-30T05:44:06;17.00;99.90
23335;DHT22;11839;48.598;8.870;2023-09-30T05:46:33;17.40;99.90
23335;DHT22;11839;48.598;8.870;2023-09-30T05:49:00;17.50;99.90
23335;DHT22;11839;48.598;8.870;2023-09-30T05:51:27;17.10;99.90
23335;DHT22;11839;48.598;8.870;2023-09-30T05:53:54;17.10;99.90
23335;DHT22;11839;48.598;8.870;2023-09-30T05:56:21;17.20;99.90
23335;DHT22;11839;48.598;8.870;2023-09-30T05:58:49;17.40;99.90
23335;DHT22;11839;48.598;8.870;2023-09-30T06:01:16;17.50;99.90
23335;DHT22;11839;48.598;8.870;2023-09-30T06:03:45;17.40;99.90
23335;DHT22;11839;48.598;8.870;2023-09-30T06:06:12;17.20;99.90
23335;DHT22;11839;48.598;8.870;2023-09-30T06:08:39;17.40;99.90
23335;DHT22;11839;48.598;8.870;2023-09-30T06:11:06;17.00;99.90
23335;DHT22;11839;48.598;8.870;2023-09-30T06:13:33;17.00;99.90
23335;DHT22;11839;48.598;8.870;2023-09-30T06:16:01;16.90;99.90
23335;DHT22;11839;48.598;8.870;2023-09-30T06:18:28;16.80;99.90
23335;DHT22;11839;48.598;8.870;2023-09-30T06:20:55;16.60;99.90
23335;DHT22;11839;48.598;8.870;2023-09-30T06:23:23;16.40;99.90
23335;DHT22;11839;48.598;8.870;2023-09-30T06:25:50;16.30;99.90
23335;DHT22;11839;48.598;8.870;2023-09-30T06:28:17;16.50;99.90
23335;DHT22;11839;48.598;8.870;2023-09-30T06:30:44;16.40;99.90
23335;DHT22;11839;48.598;8.870;2023-09-30T06:33:13;16.50;99.90
23335;DHT22;11839;48.598;8.870;2023-09-30T06:35:41;16.40;99.90
23335;DHT22;11839;48.598;8.870;2023-09-30T06:38:16;16.30;99.90
23335;DHT22;11839;48.598;8.870;2023-09-30T06:40:43;16.60;99.90
23335;DHT22;11839;48.598;8.870;2023-09-30T06:43:11;17.10;99.90
23335;DHT22;11839;48.598;8.870;2023-09-30T06:45:37;16.80;99.90
23335;DHT22;11839;48.598;8.870;2023-09-30T06:48:07;16.70;99.90
23335;DHT22;11839;48.598;8.870;2023-09-30T06:50:40;16.90;99.90
23335;DHT22;11839;48.598;8.870;2023-09-30T06:53:07;16.70;99.90
23335;DHT22;11839;48.598;8.870;2023-09-30T06:55:36;17.20;99.90
23335;DHT22;11839;48.598;8.870;2023-09-30T06:58:03;17.10;99.90
23335;DHT22;11839;48.598;8.870;2023-09-30T07:00:33;16.60;99.90
23335;DHT22;11839;48.598;8.870;2023-09-30T07:02:59;16.70;99.90
23335;DHT22;11839;48.598;8.870;2023-09-30T07:05:26;17.00;99.90
23335;DHT22;11839;48.598;8.870;2023-09-30T07:07:55;17.30;99.90
23335;DHT22;11839;48.598;8.870;2023-09-30T07:10:22;17.60;99.90
23335;DHT22;11839;48.598;8.870;2023-09-30T07:12:48;17.70;99.90
23335;DHT22;11839;48.598;8.870;2023-09-30T07:15:15;18.10;99.90
23335;DHT22;11839;48.598;8.870;2023-09-30T07:17:42;18.10;99.90
23335;DHT22;11839;48.598;8.870;2023-09-30T07:20:11;18.00;99.90
23335;DHT22;11839;48.598;8.870;2023-09-30T07:22:38;18.40;99.90
23335;DHT22;11839;48.598;8.870;2023-09-30T07:25:07;18.60;99.90
23335;DHT22;11839;48.598;8.870;2023-09-30T07:27:34;18.80;99.90
23335;DHT22;11839;48.598;8.870;2023-09-30T07:30:01;18.50;99.90
23335;DHT22;11839;48.598;8.870;2023-09-30T07:32:28;18.50;99.90
23335;DHT22;11839;48.598;8.870;2023-09-30T07:34:55;18.70;99.90
23335;DHT22;11839;48.598;8.870;2023-09-30T07:37:22;18.50;99.90
23335;DHT22;11839;48.598;8.870;2023-09-30T07:39:49;18.60;99.90
23335;DHT22;11839;48.598;8.870;2023-09-30T07:42:17;18.70;99.90
23335;DHT22;11839;48.598;8.870;2023-09-30T07:44:44;18.80;99.90
23335;DHT22;11839;48.598;8.870;2023-09-30T07:47:10;18.90;99.90
23335;DHT22;11839;48.598;8.870;2023-09-30T07:49:39;18.80;99.90
23335;DHT22;11839;48.598;8.870;2023-09-30T07:52:05;18.60;99.90
23335;DHT22;11839;48.598;8.870;2023-09-30T07:54:32;18.80;99.90
23335;DHT22;11839;48.598;8.870;2023-09-30T07:56:59;18.80;99.90
23335;DHT22;11839;48.598;8.870;2023-09-30T07:59:27;19.20;99.90
23335;DHT22;11839;48.598;8.870;2023-09-30T08:01:54;19.30;99.90
23335;DHT22;11839;48.598;8.870;2023-09-30T08:04:22;19.30;99.90
23335;DHT22;11839;48.598;8.870;2023-09-30T08:06:49;18.60;99.90
23335;DHT22;11839;48.598;8.870;2023-09-30T08:09:16;18.90;99.90
23335;DHT22;11839;48.598;8.870;2023-09-30T08:11:44;18.80;99.90
23335;DHT22;11839;48.598;8.870;2023-09-30T08:14:11;18.90;99.90
23335;DHT22;11839;48.598;8.870;2023-09-30T08:16:39;19.00;99.90
23335;DHT22;11839;48.598;8.870;2023-09-30T08:19:06;19.60;99.90
23335;DHT22;11839;48.598;8.870;2023-09-30T08:21:32;19.70;99.90
23335;DHT22;11839;48.598;8.870;2023-09-30T08:23:59;19.20;99.90
23335;DHT22;11839;48.598;8.870;2023-09-30T08:26:26;19.30;99.90
23335;DHT22;11839;48.598;8.870;2023-09-30T08:28:53;19.30;99.90
23335;DHT22;11839;48.598;8.870;2023-09-30T08:31:20;19.80;99.90
23335;DHT22;11839;48.598;8.870;2023-09-30T08:33:48;20.00;99.90
23335;DHT22;11839;48.598;8.870;2023-09-30T08:36:15;20.00;99.90
23335;DHT22;11839;48.598;8.870;2023-09-30T08:38:42;19.50;99.90
23335;DHT22;11839;48.598;8.870;2023-09-30T08:41:09;19.40;99.90
23335;DHT22;11839;48.598;8.870;2023-09-30T08:43:38;19.20;99.90
23335;DHT22;11839;48.598;8.870;2023-09-30T08:46:05;19.20;99.90
23335;DHT22;11839;48.598;8.870;2023-09-30T08:48:33;19.60;99.90
23335;DHT22;11839;48.598;8.870;2023-09-30T08:51:02;20.10;99.90
23335;DHT22;11839;48.598;8.870;2023-09-30T08:53:29;20.20;99.90
23335;DHT22;11839;48.598;8.870;2023-09-30T08:55:57;20.40;99.90
23335;DHT22;11839;48.598;8.870;2023-09-30T08:58:27;20.80;99.90
23335;DHT22;11839;48.598;8.870;2023-09-30T09:00:54;20.40;99.90
23335;DHT22;11839;48.598;8.870;2023-09-30T09:03:21;20.60;99.90
23335;DHT22;11839;48.598;8.870;2023-09-30T09:05:54;20.70;99.90
23335;DHT22;11839;48.598;8.870;2023-09-30T09:08:23;20.50;99.90
23335;DHT22;11839;48.598;8.870;2023-09-30T09:10:54;20.80;99.90
23335;DHT22;11839;48.598;8.870;2023-09-30T09:13:23;20.80;99.90
23335;DHT22;11839;48.598;8.870;2023-09-30T09:15:50;20.80;99.90
23335;DHT22;11839;48.598;8.870;2023-09-30T09:18:31;20.80;99.90
23335;DHT22;11839;48.598;8.870;2023-09-30T09:21:08;20.90;99.90
23335;DHT22;11839;48.598;8.870;2023-09-30T09:23:41;21.10;99.90
23335;DHT22;11839;48.598;8.870;2023-09-30T09:26:08;21.20;99.90
23335;DHT22;11839;48.598;8.870;2023-09-30T09:28:36;21.20;99.90
23335;DHT22;11839;48.598;8.870;2023-09-30T09:31:19;21.10;99.90
23335;DHT22;11839;48.598;8.870;2023-09-30T09:33:47;21.30;99.90
23335;DHT22;11839;48.598;8.870;2023-09-30T09:36:15;21.30;99.90
23335;DHT22;11839;48.598;8.870;2023-09-30T09:38:47;21.40;99.90
23335;DHT22;11839;48.598;8.870;2023-09-30T09:41:16;21.50;99.90
23335;DHT22;11839;48.598;8.870;2023-09-30T09:43:43;21.30;99.90
23335;DHT22;11839;48.598;8.870;2023-09-30T09:46:10;21.80;99.90
23335;DHT22;11839;48.598;8.870;2023-09-30T09:48:37;22.10;99.90
23335;DHT22;11839;48.598;8.870;2023-09-30T09:51:05;21.80;99.90
23335;DHT22;11839;48.598;8.870;2023-09-30T09:53:35;22.00;99.90
23335;DHT22;11839;48.598;8.870;2023-09-30T09:56:04;21.60;99.90
23335;DHT22;11839;48.598;8.870;2023-09-30T09:58:33;21.30;99.90
23335;DHT22;11839;48.598;8.870;2023-09-30T10:01:02;21.30;99.90
23335;DHT22;11839;48.598;8.870;2023-09-30T10:03:28;21.70;99.90
23335;DHT22;11839;48.598;8.870;2023-09-30T10:05:56;21.70;99.90
23335;DHT22;11839;48.598;8.870;2023-09-30T10:08:31;22.20;99.90
23335;DHT22;11839;48.598;8.870;2023-09-30T10:10:59;22.70;99.90
23335;DHT22;11839;48.598;8.870;2023-09-30T10:13:57;23.00;99.90
23335;DHT22;11839;48.598;8.870;2023-09-30T10:16:48;23.10;99.90
23335;DHT22;11839;48.598;8.870;2023-09-30T10:19:17;22.90;99.90
23335;DHT22;11839;48.598;8.870;2023-09-30T10:22:22;22.20;99.90
23335;DHT22;11839;48.598;8.870;2023-09-30T10:24:50;21.70;99.90
23335;DHT22;11839;48.598;8.870;2023-09-30T10:27:31;22.30;99.90
23335;DHT22;11839;48.598;8.870;2023-09-30T10:30:12;22.00;99.90
23335;DHT22;11839;48.598;8.870;2023-09-30T10:33:07;21.80;99.90
23335;DHT22;11839;48.598;8.870;2023-09-30T10:35:43;22.30;99.90
23335;DHT22;11839;48.598;8.870;2023-09-30T10:38:37;22.60;99.90
23335;DHT22;11839;48.598;8.870;2023-09-30T10:41:06;22.80;99.90
23335;DHT22;11839;48.598;8.870;2023-09-30T10:43:35;22.70;99.90
23335;DHT22;11839;48.598;8.870;2023-09-30T10:46:04;22.70;99.90
23335;DHT22;11839;48.598;8.870;2023-09-30T10:48:35;22.70;99.90
23335;DHT22;11839;48.598;8.870;2023-09-30T10:51:02;22.90;99.90
23335;DHT22;11839;48.598;8.870;2023-09-30T10:53:41;22.70;99.90
23335;DHT22;11839;48.598;8.870;2023-09-30T10:56:08;23.30;99.90
23335;DHT22;11839;48.598;8.870;2023-09-30T10:58:42;23.30;99.90
23335;DHT22;11839;48.598;8.870;2023-09-30T11:01:12;22.70;99.90
23335;DHT22;11839;48.598;8.870;2023-09-30T11:03:40;22.70;99.90
23335;DHT22;11839;48.598;8.870;2023-09-30T11:06:07;23.10;99.90
23335;DHT22;11839;48.598;8.870;2023-09-30T11:08:35;23.10;99.90
23335;DHT22;11839;48.598;8.870;2023-09-30T11:11:03;22.80;99.90
23335;DHT22;11839;48.598;8.870;2023-09-30T11:13:33;22.40;99.90
23335;DHT22;11839;48.598;8.870;2023-09-30T11:16:02;22.70;99.90
23335;DHT22;11839;48.598;8.870;2023-09-30T11:18:31;22.60;99.90
23335;DHT22;11839;48.598;8.870;2023-09-30T11:21:09;22.50;99.90
23335;DHT22;11839;48.598;8.870;2023-09-30T11:23:39;23.10;99.90
23335;DHT22;11839;48.598;8.870;2023-09-30T11:26:07;23.20;99.90
23335;DHT22;11839;48.598;8.870;2023-09-30T11:28:36;23.20;99.90
23335;DHT22;11839;48.598;8.870;2023-09-30T11:31:03;23.30;99.90
23335;DHT22;11839;48.598;8.870;2023-09-30T11:33:33;22.90;99.90
23335;DHT22;11839;48.598;8.870;2023-09-30T11:36:13;23.20;99.90
23335;DHT22;11839;48.598;8.870;2023-09-30T11:38:44;23.90;99.90
23335;DHT22;11839;48.598;8.870;2023-09-30T11:41:11;23.40;99.40
23335;DHT22;11839;48.598;8.870;2023-09-30T11:43:38;23.50;99.10
23335;DHT22;11839;48.598;8.870;2023-09-30T11:46:06;23.00;97.60
23335;DHT22;11839;48.598;8.870;2023-09-30T11:48:35;23.00;99.90
23335;DHT22;11839;48.598;8.870;2023-09-30T11:51:02;23.40;99.90
23335;DHT22;11839;48.598;8.870;2023-09-30T11:53:29;23.30;99.90
23335;DHT22;11839;48.598;8.870;2023-09-30T11:55:57;23.50;99.90
23335;DHT22;11839;48.598;8.870;2023-09-30T11:58:25;23.60;99.90
23335;DHT22;11839;48.598;8.870;2023-09-30T12:00:53;23.50;99.90
23335;DHT22;11839;48.598;8.870;2023-09-30T12:03:23;23.30;99.90
23335;DHT22;11839;48.598;8.870;2023-09-30T12:05:52;23.60;99.90
23335;DHT22;11839;48.598;8.870;2023-09-30T12:08:20;23.80;99.90
23335;DHT22;11839;48.598;8.870;2023-09-30T12:10:48;23.80;99.90
23335;DHT22;11839;48.598;8.870;2023-09-30T12:13:15;23.80;99.90
23335;DHT22;11839;48.598;8.870;2023-09-30T12:15:42;23.50;99.90
23335;DHT22;11839;48.598;8.870;2023-09-30T12:18:10;23.90;99.90
23335;DHT22;11839;48.598;8.870;2023-09-30T12:20:39;23.90;99.90
23335;DHT22;11839;48.598;8.870;2023-09-30T12:23:08;24.10;99.00
23335;DHT22;11839;48.598;8.870;2023-09-30T12:25:34;24.10;98.50
23335;DHT22;11839;48.598;8.870;2023-09-30T12:28:03;23.80;98.80
23335;DHT22;11839;48.598;8.870;2023-09-30T12:30:31;23.80;99.30
23335;DHT22;11839;48.598;8.870;2023-09-30T12:32:58;23.80;99.50
23335;DHT22;11839;48.598;8.870;2023-09-30T12:35:25;23.90;99.90
23335;DHT22;11839;48.598;8.870;2023-09-30T12:37:51;23.80;99.50
23335;DHT22;11839;48.598;8.870;2023-09-30T12:40:19;23.40;99.10
23335;DHT22;11839;48.598;8.870;2023-09-30T12:42:46;23.30;99.50
23335;DHT22;11839;48.598;8.870;2023-09-30T12:45:13;23.30;99.80
23335;DHT22;11839;48.598;8.870;2023-09-30T12:47:40;23.40;99.90
23335;DHT22;11839;48.598;8.870;2023-09-30T12:50:08;23.30;99.10
23335;DHT22;11839;48.598;8.870;2023-09-30T12:52:35;22.90;99.00
23335;DHT22;11839;48.598;8.870;2023-09-30T12:55:04;23.10;99.30
23335;DHT22;11839;48.598;8.870;2023-09-30T12:57:32;23.50;98.90
23335;DHT22;11839;48.598;8.870;2023-09-30T12:59:59;23.40;97.90
23335;DHT22;11839;48.598;8.870;2023-09-30T13:02:26;23.20;98.60
23335;DHT22;11839;48.598;8.870;2023-09-30T13:04:53;23.50;98.30
23335;DHT22;11839;48.598;8.870;2023-09-30T13:07:20;23.70;98.40
23335;DHT22;11839;48.598;8.870;2023-09-30T13:09:46;24.20;98.10
23335;DHT22;11839;48.598;8.870;2023-09-30T13:12:13;24.40;97.70
23335;DHT22;11839;48.598;8.870;2023-09-30T13:14:41;24.00;97.80
23335;DHT22;11839;48.598;8.870;2023-09-30T13:17:08;23.70;97.80
23335;DHT22;11839;48.598;8.870;2023-09-30T13:19:38;22.70;98.60
23335;DHT22;11839;48.598;8.870;2023-09-30T13:22:05;22.40;99.80
23335;DHT22;11839;48.598;8.870;2023-09-30T13:24:32;22.20;99.90
23335;DHT22;11839;48.598;8.870;2023-09-30T13:27:03;22.30;99.90
23335;DHT22;11839;48.598;8.870;2023-09-30T13:29:29;22.30;99.90
23335;DHT22;11839;48.598;8.870;2023-09-30T13:31:58;22.40;99.90
23335;DHT22;11839;48.598;8.870;2023-09-30T13:34:24;22.40;99.90
23335;DHT22;11839;48.598;8.870;2023-09-30T13:36:51;22.20;99.90
23335;DHT22;11839;48.598;8.870;2023-09-30T13:39:18;22.10;99.90
23335;DHT22;11839;48.598;8.870;2023-09-30T13:41:47;22.50;99.90
23335;DHT22;11839;48.598;8.870;2023-09-30T13:44:14;22.70;99.60
23335;DHT22;11839;48.598;8.870;2023-09-30T13:46:41;22.50;99.20
23335;DHT22;11839;48.598;8.870;2023-09-30T13:49:09;22.80;99.50
23335;DHT22;11839;48.598;8.870;2023-09-30T13:51:36;22.60;99.70
23335;DHT22;11839;48.598;8.870;2023-09-30T13:54:04;22.70;99.50
23335;DHT22;11839;48.598;8.870;2023-09-30T13:56:32;22.60;99.50
23335;DHT22;11839;48.598;8.870;2023-09-30T13:58:59;22.30;99.10
23335;DHT22;11839;48.598;8.870;2023-09-30T14:01:26;22.70;99.10
23335;DHT22;11839;48.598;8.870;2023-09-30T14:03:53;22.90;99.00
23335;DHT22;11839;48.598;8.870;2023-09-30T14:06:24;23.00;99.30
23335;DHT22;11839;48.598;8.870;2023-09-30T14:08:51;23.10;98.80
23335;DHT22;11839;48.598;8.870;2023-09-30T14:11:18;22.90;99.10
23335;DHT22;11839;48.598;8.870;2023-09-30T14:13:45;22.80;99.50
23335;DHT22;11839;48.598;8.870;2023-09-30T14:16:12;22.80;99.70
23335;DHT22;11839;48.598;8.870;2023-09-30T14:18:39;22.80;98.90
23335;DHT22;11839;48.598;8.870;2023-09-30T14:21:06;23.20;98.80
23335;DHT22;11839;48.598;8.870;2023-09-30T14:23:34;23.50;98.80
23335;DHT22;11839;48.598;8.870;2023-09-30T14:26:01;23.10;99.90
23335;DHT22;11839;48.598;8.870;2023-09-30T14:28:35;22.50;99.90
23335;DHT22;11839;48.598;8.870;2023-09-30T14:31:03;22.30;99.90
23335;DHT22;11839;48.598;8.870;2023-09-30T14:33:33;22.50;99.90
23335;DHT22;11839;48.598;8.870;2023-09-30T14:35:59;22.50;99.90
23335;DHT22;11839;48.598;8.870;2023-09-30T14:38:26;22.20;99.90
23335;DHT22;11839;48.598;8.870;2023-09-30T14:40:54;22.30;99.90
23335;DHT22;11839;48.598;8.870;2023-09-30T14:43:21;22.20;99.90
23335;DHT22;11839;48.598;8.870;2023-09-30T14:45:48;21.80;99.90
23335;DHT22;11839;48.598;8.870;2023-09-30T14:48:15;22.00;99.90
23335;DHT22;11839;48.598;8.870;2023-09-30T14:50:49;22.20;99.90
23335;DHT22;11839;48.598;8.870;2023-09-30T14:53:16;21.90;99.90
23335;DHT22;11839;48.598;8.870;2023-09-30T14:55:43;21.60;99.90
23335;DHT22;11839;48.598;8.870;2023-09-30T14:58:11;21.60;99.90
23335;DHT22;11839;48.598;8.870;2023-09-30T15:00:38;22.10;99.90
23335;DHT22;11839;48.598;8.870;2023-09-30T15:03:05;22.40;99.90
23335;DHT22;11839;48.598;8.870;2023-09-30T15:05:32;22.40;99.90
23335;DHT22;11839;48.598;8.870;2023-09-30T15:07:59;22.30;99.90
23335;DHT22;11839;48.598;8.870;2023-09-30T15:10:27;22.40;99.90
23335;DHT22;11839;48.598;8.870;2023-09-30T15:12:54;22.20;99.90
23335;DHT22;11839;48.598;8.870;2023-09-30T15:15:22;22.20;99.90
23335;DHT22;11839;48.598;8.870;2023-09-30T15:17:49;22.10;99.90
23335;DHT22;11839;48.598;8.870;2023-09-30T15:20:17;22.50;99.90
23335;DHT22;11839;48.598;8.870;2023-09-30T15:22:44;22.40;99.90
23335;DHT22;11839;48.598;8.870;2023-09-30T15:25:11;22.70;99.90
23335;DHT22;11839;48.598;8.870;2023-09-30T15:27:38;22.60;99.90
23335;DHT22;11839;48.598;8.870;2023-09-30T15:30:05;22.40;99.90
23335;DHT22;11839;48.598;8.870;2023-09-30T15:32:34;22.20;99.90
23335;DHT22;11839;48.598;8.870;2023-09-30T15:35:02;21.70;99.90
23335;DHT22;11839;48.598;8.870;2023-09-30T15:37:31;22.10;99.90